Lhasa, China
Current Conditions -  °F | °C
As of 4:50 PM on Saturday 22 Nov 2014 (Local Time) from VNKT Reporting Station
Few Clouds Few Clouds  
Wind Chill: 68°   Ceiling: Unl
Heat Index: 68°   Visibility: 4mi
Dew Point: 50°   Wind: 7mph
Humidity: 52%   Direction: 230°SW
Pressure: 29.97"   Gusts: NA
Location:  29.7°N, 91.13°E
Report Text: VNKT 220850Z 23006KT 6000 FEW025 20/10 Q1015 NOSIG
Loading
Personal Weather Stations






























Interactive Weather Map New forecast layout! Learn more

10-Day Weather Forecast

Advertisements
Track Severe Weather on mobile